createdAt,value
2023-04-18T00:00:51.821Z,9.30
2023-04-18T00:03:22.829Z,9.30
2023-04-18T00:05:53.340Z,9.30
2023-04-18T00:08:23.536Z,9.20
2023-04-18T00:10:54.944Z,9.10
2023-04-18T00:13:29.185Z,9.10
2023-04-18T00:16:00.472Z,9.00
2023-04-18T00:18:30.757Z,9.00
2023-04-18T00:21:01.142Z,8.90
2023-04-18T00:23:31.355Z,8.80
2023-04-18T00:26:01.627Z,8.80
2023-04-18T00:28:33.477Z,8.80
2023-04-18T00:31:04.004Z,8.70
2023-04-18T00:33:34.752Z,8.70
2023-04-18T00:36:05.100Z,8.70
2023-04-18T00:38:35.305Z,8.70
2023-04-18T00:41:05.934Z,8.60
2023-04-18T00:43:38.213Z,8.60
2023-04-18T00:46:09.808Z,8.60
2023-04-18T00:48:41.133Z,8.60
2023-04-18T00:51:13.944Z,8.60
2023-04-18T00:53:45.284Z,8.50
2023-04-18T00:56:16.345Z,8.50
2023-04-18T00:58:52.111Z,8.50
2023-04-18T01:01:23.427Z,8.50
2023-04-18T01:03:53.757Z,8.50
2023-04-18T01:06:24.478Z,8.50
2023-04-18T01:08:57.334Z,8.50
2023-04-18T01:11:27.534Z,8.40
2023-04-18T01:14:06.828Z,8.40
2023-04-18T01:16:37.854Z,8.40
2023-04-18T01:19:08.655Z,8.40
2023-04-18T01:21:42.536Z,8.40
2023-04-18T01:24:16.336Z,8.40
2023-04-18T01:26:48.256Z,8.40
2023-04-18T01:29:18.700Z,8.40
2023-04-18T01:31:49.539Z,8.40
2023-04-18T01:34:19.991Z,8.40
2023-04-18T01:36:50.584Z,8.40
2023-04-18T01:39:23.854Z,8.50
2023-04-18T01:41:54.298Z,8.50
2023-04-18T01:44:24.740Z,8.50
2023-04-18T01:46:55.595Z,8.60
2023-04-18T01:49:26.055Z,8.60
2023-04-18T01:51:56.355Z,8.60
2023-04-18T01:54:28.855Z,8.60
2023-04-18T01:56:59.168Z,8.60
2023-04-18T01:59:29.320Z,8.70
2023-04-18T02:01:59.782Z,8.70
2023-04-18T02:04:30.645Z,8.80
2023-04-18T02:07:01.670Z,8.80
2023-04-18T02:09:33.490Z,8.80
2023-04-18T02:12:05.044Z,8.90
2023-04-18T02:14:37.601Z,9.00
2023-04-18T02:17:08.042Z,9.10
2023-04-18T02:19:38.300Z,9.20
2023-04-18T02:22:08.582Z,9.30
2023-04-18T02:24:40.727Z,9.40
2023-04-18T02:27:11.382Z,9.40
2023-04-18T02:29:41.596Z,9.40
2023-04-18T02:32:12.195Z,9.40
2023-04-18T02:34:42.526Z,9.40
2023-04-18T02:37:12.852Z,9.30
2023-04-18T02:39:44.666Z,9.20
2023-04-18T02:42:14.847Z,9.00
2023-04-18T02:44:45.161Z,8.70
2023-04-18T02:47:16.551Z,8.50
2023-04-18T02:49:46.666Z,8.30
2023-04-18T02:52:16.973Z,8.10
2023-04-18T02:54:48.869Z,7.90
2023-04-18T02:57:19.064Z,7.60
2023-04-18T02:59:49.206Z,7.30
2023-04-18T03:02:19.674Z,7.00
2023-04-18T03:04:50.088Z,6.90
2023-04-18T03:07:20.381Z,6.70
2023-04-18T03:09:52.122Z,6.50
2023-04-18T03:12:22.352Z,6.40
2023-04-18T03:14:52.610Z,6.40
2023-04-18T03:17:23.008Z,6.30
2023-04-18T03:19:53.223Z,6.30
2023-04-18T03:22:24.084Z,6.30
2023-04-18T03:24:56.011Z,6.20
2023-04-18T03:27:26.314Z,6.30
2023-04-18T03:29:56.819Z,6.30
2023-04-18T03:32:27.658Z,6.30
2023-04-18T03:34:58.015Z,6.30
2023-04-18T03:37:28.268Z,6.30
2023-04-18T03:40:00.434Z,6.30
2023-04-18T03:42:30.803Z,6.30
2023-04-18T03:45:01.602Z,6.30
2023-04-18T03:47:33.682Z,6.30
2023-04-18T03:50:04.476Z,6.30
2023-04-18T03:52:34.843Z,6.30
2023-04-18T03:55:07.349Z,6.30
2023-04-18T03:57:37.645Z,6.20
2023-04-18T04:00:09.385Z,6.20
2023-04-18T04:02:39.903Z,6.20
2023-04-18T04:05:10.915Z,6.10
2023-04-18T04:07:41.359Z,6.10
2023-04-18T04:10:13.763Z,6.10
2023-04-18T04:12:44.063Z,6.10
2023-04-18T04:15:15.432Z,6.10
2023-04-18T04:17:46.127Z,6.10
2023-04-18T04:20:16.490Z,6.10
2023-04-18T04:22:46.710Z,6.10
2023-04-18T04:25:20.853Z,6.10
2023-04-18T04:27:54.870Z,6.10
2023-04-18T04:30:25.205Z,6.00
2023-04-18T04:32:57.002Z,6.00
2023-04-18T04:35:27.426Z,6.00
2023-04-18T04:37:57.779Z,6.00
2023-04-18T04:40:29.846Z,6.00
2023-04-18T04:43:00.375Z,6.00
2023-04-18T04:45:31.045Z,5.90
2023-04-18T04:48:02.235Z,5.90
2023-04-18T04:50:32.636Z,5.90
2023-04-18T04:53:02.962Z,5.80
2023-04-18T04:55:34.830Z,5.90
2023-04-18T04:58:05.436Z,5.80
2023-04-18T05:00:35.878Z,5.80
2023-04-18T05:03:06.635Z,5.80
2023-04-18T05:05:37.425Z,5.80
2023-04-18T05:08:08.464Z,5.70
2023-04-18T05:10:40.265Z,5.70
2023-04-18T05:13:10.463Z,5.80
2023-04-18T05:15:42.249Z,5.70
2023-04-18T05:18:12.527Z,5.80
2023-04-18T05:20:43.132Z,5.70
2023-04-18T05:23:13.357Z,5.70
2023-04-18T05:25:45.261Z,5.70
2023-04-18T05:28:15.525Z,5.70
2023-04-18T05:30:47.801Z,5.60
2023-04-18T05:33:18.071Z,5.60
2023-04-18T05:35:48.222Z,5.60
2023-04-18T05:38:18.676Z,5.60
2023-04-18T05:40:51.758Z,5.60
2023-04-18T05:43:22.369Z,5.50
2023-04-18T05:45:55.845Z,5.50
2023-04-18T05:48:27.931Z,5.50
2023-04-18T05:50:58.466Z,5.40
2023-04-18T05:53:28.935Z,5.40
2023-04-18T05:56:01.088Z,5.40
2023-04-18T05:58:31.616Z,5.40
2023-04-18T06:01:02.332Z,5.40
2023-04-18T06:03:32.915Z,5.40
2023-04-18T06:06:03.700Z,5.40
2023-04-18T06:08:33.891Z,5.40
2023-04-18T06:11:06.044Z,5.30
2023-04-18T06:13:36.835Z,5.30
2023-04-18T06:16:07.720Z,5.20
2023-04-18T06:18:38.831Z,5.20
2023-04-18T06:21:09.551Z,5.20
2023-04-18T06:23:40.303Z,5.10
2023-04-18T06:26:12.217Z,5.20
2023-04-18T06:28:42.613Z,5.10
2023-04-18T06:31:12.821Z,5.10
2023-04-18T06:33:43.013Z,5.10
2023-04-18T06:36:13.765Z,5.10
2023-04-18T06:38:43.945Z,5.10
2023-04-18T06:41:16.209Z,5.10
2023-04-18T06:43:59.760Z,5.00
2023-04-18T06:46:33.458Z,5.10
2023-04-18T06:49:04.284Z,5.00
2023-04-18T06:51:34.874Z,5.00
2023-04-18T06:54:05.212Z,5.00
2023-04-18T06:56:37.590Z,5.00
2023-04-18T06:59:08.316Z,5.00
2023-04-18T07:01:43.641Z,5.00
2023-04-18T07:04:14.714Z,5.00
2023-04-18T07:06:45.781Z,5.00
2023-04-18T07:09:16.048Z,4.90
2023-04-18T07:11:48.526Z,4.90
2023-04-18T07:14:20.578Z,4.80
2023-04-18T07:16:50.974Z,4.80
2023-04-18T07:19:21.339Z,4.80
2023-04-18T07:21:51.645Z,4.80
2023-04-18T07:24:25.248Z,4.80
2023-04-18T07:26:57.529Z,4.80
2023-04-18T07:29:28.025Z,4.70
2023-04-18T07:31:58.689Z,4.70
2023-04-18T07:34:30.510Z,4.70
2023-04-18T07:37:00.979Z,4.70
2023-04-18T07:39:32.548Z,4.70
2023-04-18T07:42:05.399Z,4.70
2023-04-18T07:44:37.404Z,4.70
2023-04-18T07:47:12.128Z,4.60
2023-04-18T07:49:42.605Z,4.60
2023-04-18T07:52:12.907Z,4.50
2023-04-18T07:54:43.413Z,4.50
2023-04-18T07:57:15.242Z,4.50
2023-04-18T07:59:45.444Z,4.40
2023-04-18T08:02:15.829Z,4.40
2023-04-18T08:04:47.904Z,4.40
2023-04-18T08:07:18.601Z,4.40
2023-04-18T08:09:49.203Z,4.40
2023-04-18T08:12:21.337Z,4.30
2023-04-18T08:14:51.591Z,4.20
2023-04-18T08:17:22.021Z,4.20
2023-04-18T08:19:52.430Z,4.10
2023-04-18T08:22:22.580Z,4.00
2023-04-18T08:27:29.504Z,3.90
2023-04-18T08:29:59.763Z,3.80
2023-04-18T08:32:30.240Z,3.80
2023-04-18T08:35:00.605Z,3.70
2023-04-18T08:37:30.878Z,3.70
2023-04-18T08:40:01.064Z,3.70
2023-04-18T08:42:33.882Z,3.60
2023-04-18T08:45:05.006Z,3.60
2023-04-18T08:47:36.890Z,3.50
2023-04-18T08:50:08.435Z,3.40
2023-04-18T08:52:40.292Z,3.40
2023-04-18T08:55:11.674Z,3.30
2023-04-18T08:57:43.545Z,3.30
2023-04-18T09:00:15.081Z,3.30
2023-04-18T09:02:47.579Z,3.30
2023-04-18T09:05:19.880Z,3.20
2023-04-18T09:07:51.008Z,3.20
2023-04-18T09:10:29.608Z,3.20
2023-04-18T09:13:03.907Z,3.20
2023-04-18T09:15:35.108Z,3.10
2023-04-18T09:18:06.287Z,3.10
2023-04-18T09:20:38.649Z,3.10
2023-04-18T09:23:11.596Z,3.10
2023-04-18T09:25:47.106Z,3.10
2023-04-18T09:28:30.401Z,3.00
2023-04-18T09:31:02.242Z,2.90
2023-04-18T09:33:34.633Z,2.80
2023-04-18T09:36:20.544Z,2.70
2023-04-18T09:38:53.124Z,2.60
2023-04-18T09:41:25.842Z,2.60
2023-04-18T09:44:15.207Z,2.60
2023-04-18T09:46:47.551Z,2.70
2023-04-18T09:49:18.654Z,2.80
2023-04-18T09:51:49.230Z,2.80
2023-04-18T09:54:21.216Z,2.90
2023-04-18T09:56:54.126Z,3.00
2023-04-18T09:59:37.273Z,3.10
2023-04-18T10:02:10.731Z,3.20
2023-04-18T10:04:41.299Z,3.20
2023-04-18T10:07:11.843Z,3.30
2023-04-18T10:09:45.345Z,3.30
2023-04-18T10:12:16.011Z,3.40
2023-04-18T10:14:47.930Z,3.40
2023-04-18T10:17:18.590Z,3.40
2023-04-18T10:19:49.156Z,3.50
2023-04-18T10:22:30.640Z,3.60
2023-04-18T10:25:00.890Z,3.60
2023-04-18T10:28:02.219Z,3.70
2023-04-18T10:31:05.419Z,3.80
2023-04-18T10:33:41.968Z,3.90
2023-04-18T10:36:21.278Z,3.90
2023-04-18T10:38:53.094Z,3.90
2023-04-18T10:41:25.808Z,4.00
2023-04-18T10:44:24.308Z,4.00
2023-04-18T10:47:34.344Z,4.00
2023-04-18T10:50:07.199Z,4.00
2023-04-18T10:52:37.485Z,4.10
2023-04-18T10:55:18.696Z,4.10
2023-04-18T10:57:51.000Z,4.20
2023-04-18T11:00:22.911Z,4.30
2023-04-18T11:02:56.649Z,4.30
2023-04-18T11:05:30.765Z,4.30
2023-04-18T11:08:01.305Z,4.40
2023-04-18T11:10:32.003Z,4.50
2023-04-18T11:13:05.396Z,4.50
2023-04-18T11:15:40.584Z,4.60
2023-04-18T11:18:12.614Z,4.60
2023-04-18T11:20:50.580Z,4.60
2023-04-18T11:23:24.699Z,4.70
2023-04-18T11:25:57.346Z,4.70
2023-04-18T11:28:27.672Z,4.80
2023-04-18T11:31:01.361Z,4.80
2023-04-18T11:33:32.676Z,4.80
2023-04-18T11:36:07.351Z,4.80
2023-04-18T11:38:38.150Z,4.90
2023-04-18T11:41:14.479Z,4.90
2023-04-18T11:43:46.593Z,4.90
2023-04-18T11:46:17.835Z,5.00
2023-04-18T11:48:48.607Z,5.00
2023-04-18T11:51:36.477Z,5.00
2023-04-18T11:54:06.925Z,5.00
2023-04-18T11:56:37.583Z,5.10
2023-04-18T11:59:12.668Z,5.10
2023-04-18T12:01:43.028Z,5.20
2023-04-18T12:06:59.742Z,5.30
2023-04-18T12:09:30.675Z,5.30
2023-04-18T12:12:02.334Z,5.30
2023-04-18T12:14:32.876Z,5.30
2023-04-18T12:17:06.392Z,5.30
2023-04-18T12:19:36.624Z,5.30
2023-04-18T12:22:10.293Z,5.30
2023-04-18T12:24:40.549Z,5.30
2023-04-18T12:27:12.675Z,5.30
2023-04-18T12:29:42.997Z,5.30
2023-04-18T12:32:13.331Z,5.30
2023-04-18T12:34:44.823Z,5.30
2023-04-18T12:37:16.965Z,5.40
2023-04-18T12:39:47.224Z,5.40
2023-04-18T12:42:17.729Z,5.40
2023-04-18T12:44:48.053Z,5.50
2023-04-18T12:47:18.630Z,5.50
2023-04-18T12:49:49.411Z,5.50
2023-04-18T12:52:21.469Z,5.50
2023-04-18T12:54:52.000Z,5.50
2023-04-18T12:57:22.419Z,5.50
2023-04-18T12:59:52.855Z,5.50
2023-04-18T13:02:23.766Z,5.60
2023-04-18T13:04:54.386Z,5.60
2023-04-18T13:07:27.714Z,5.70
2023-04-18T13:09:58.000Z,5.70
2023-04-18T13:12:30.070Z,5.70
2023-04-18T13:15:00.634Z,5.80
2023-04-18T13:17:31.548Z,5.90
2023-04-18T13:20:02.261Z,5.90
2023-04-18T13:22:34.550Z,5.90
2023-04-18T13:25:05.137Z,5.90
2023-04-18T13:27:35.426Z,5.90
2023-04-18T13:30:06.239Z,5.90
2023-04-18T13:32:36.514Z,5.90
2023-04-18T13:35:08.854Z,5.90
2023-04-18T13:37:41.046Z,5.90
2023-04-18T13:40:11.954Z,6.10
2023-04-18T13:42:42.191Z,6.20
2023-04-18T13:45:13.911Z,6.40
2023-04-18T13:47:44.242Z,6.60
2023-04-18T13:50:14.619Z,6.80
2023-04-18T13:52:47.870Z,6.90
2023-04-18T13:55:19.321Z,6.90
2023-04-18T13:57:49.718Z,6.90
2023-04-18T14:00:20.730Z,7.00
2023-04-18T14:02:51.765Z,6.90
2023-04-18T14:05:22.256Z,6.80
2023-04-18T14:07:54.158Z,6.70
2023-04-18T14:10:24.551Z,6.60
2023-04-18T14:12:54.802Z,6.50
2023-04-18T14:15:25.142Z,6.50
2023-04-18T14:17:55.478Z,6.50
2023-04-18T14:20:27.259Z,6.60
2023-04-18T14:23:08.395Z,6.80
2023-04-18T14:25:39.904Z,7.20
2023-04-18T14:28:11.893Z,7.80
2023-04-18T14:30:42.808Z,7.70
2023-04-18T14:33:13.333Z,7.50
2023-04-18T14:35:44.622Z,7.10
2023-04-18T14:38:16.758Z,7.10
2023-04-18T14:40:47.185Z,7.00
2023-04-18T14:43:17.650Z,7.10
2023-04-18T14:45:48.166Z,7.20
2023-04-18T14:48:18.399Z,7.20
2023-04-18T14:50:48.767Z,7.20
2023-04-18T14:53:20.617Z,7.30
2023-04-18T14:55:50.838Z,7.20
2023-04-18T14:58:21.579Z,7.00
2023-04-18T15:00:51.785Z,7.00
2023-04-18T15:03:22.468Z,6.90
2023-04-18T15:05:53.881Z,6.80
2023-04-18T15:08:26.076Z,6.70
2023-04-18T15:10:57.001Z,6.60
2023-04-18T15:13:28.217Z,6.60
2023-04-18T15:15:58.998Z,6.70
2023-04-18T15:18:29.522Z,6.80
2023-04-18T15:21:01.838Z,6.90
2023-04-18T15:23:33.787Z,7.10
2023-04-18T15:26:03.990Z,7.20
2023-04-18T15:28:34.442Z,7.30
2023-04-18T15:31:04.783Z,7.20
2023-04-18T15:33:35.259Z,7.10
2023-04-18T15:36:05.478Z,7.00
2023-04-18T15:38:37.462Z,6.80
2023-04-18T15:41:07.838Z,6.80
2023-04-18T15:43:38.225Z,6.70
2023-04-18T15:46:08.718Z,6.60
2023-04-18T15:48:39.063Z,6.50
2023-04-18T15:51:09.457Z,6.40
2023-04-18T15:53:41.747Z,6.50
2023-04-18T15:56:12.158Z,6.50
2023-04-18T15:58:42.472Z,6.60
2023-04-18T16:01:16.522Z,6.60
2023-04-18T16:03:47.871Z,6.50
2023-04-18T16:06:18.597Z,6.60
2023-04-18T16:08:50.442Z,6.70
2023-04-18T16:11:27.979Z,6.80
2023-04-18T16:14:01.030Z,6.60
2023-04-18T16:16:40.500Z,6.50
2023-04-18T16:19:10.842Z,6.40
2023-04-18T16:21:41.104Z,6.50
2023-04-18T16:24:13.402Z,6.50
2023-04-18T16:26:43.883Z,6.50
2023-04-18T16:29:14.518Z,6.60
2023-04-18T16:31:44.921Z,6.50
2023-04-18T16:34:16.166Z,6.50
2023-04-18T16:36:46.519Z,6.40
2023-04-18T16:39:19.342Z,6.50
2023-04-18T16:41:49.752Z,6.50
2023-04-18T16:44:20.095Z,6.50
2023-04-18T16:46:50.970Z,6.60
2023-04-18T16:49:21.433Z,6.70
2023-04-18T16:51:55.393Z,6.70
2023-04-18T16:54:27.431Z,6.80
2023-04-18T16:56:57.670Z,6.80
2023-04-18T16:59:28.100Z,6.80
2023-04-18T17:01:59.558Z,6.90
2023-04-18T17:04:30.120Z,6.90
2023-04-18T17:07:00.472Z,6.90
2023-04-18T17:09:33.822Z,6.90
2023-04-18T17:12:04.213Z,6.90
2023-04-18T17:14:34.614Z,7.00
2023-04-18T17:17:04.920Z,7.20
2023-04-18T17:19:35.448Z,7.30
2023-04-18T17:22:05.700Z,7.30
2023-04-18T17:24:37.672Z,7.30
2023-04-18T17:27:08.047Z,7.30
2023-04-18T17:29:38.339Z,7.40
2023-04-18T17:32:09.199Z,7.40
2023-04-18T17:34:39.521Z,7.50
2023-04-18T17:37:09.806Z,7.60
2023-04-18T17:39:41.955Z,7.60
2023-04-18T17:42:12.501Z,7.80
2023-04-18T17:44:42.724Z,7.90
2023-04-18T17:47:13.163Z,7.90
2023-04-18T17:49:43.363Z,7.80
2023-04-18T17:52:13.588Z,7.70
2023-04-18T17:54:46.067Z,7.60
2023-04-18T17:57:16.608Z,7.60
2023-04-18T17:59:46.881Z,7.70
2023-04-18T18:02:17.367Z,7.60
2023-04-18T18:04:47.930Z,7.50
2023-04-18T18:07:18.242Z,7.50
2023-04-18T18:09:50.323Z,7.60
2023-04-18T18:12:20.513Z,7.70
2023-04-18T18:14:51.232Z,7.80
2023-04-18T18:17:21.488Z,7.80
2023-04-18T18:19:51.869Z,7.90
2023-04-18T18:22:23.683Z,8.10
2023-04-18T18:24:55.460Z,8.10
2023-04-18T18:27:26.002Z,8.10
2023-04-18T18:29:57.645Z,8.10
2023-04-18T18:32:28.883Z,8.00
2023-04-18T18:34:59.160Z,7.90
2023-04-18T18:37:29.626Z,7.70
2023-04-18T18:40:02.328Z,7.70
2023-04-18T18:42:32.726Z,7.70
2023-04-18T18:45:03.964Z,7.70
2023-04-18T18:47:36.298Z,7.60
2023-04-18T18:50:08.322Z,7.60
2023-04-18T18:52:38.518Z,7.60
2023-04-18T18:55:11.696Z,7.60
2023-04-18T18:57:41.930Z,7.60
2023-04-18T19:00:13.998Z,7.60
2023-04-18T19:02:44.312Z,7.80
2023-04-18T19:05:14.788Z,7.90
2023-04-18T19:07:45.312Z,7.90
2023-04-18T19:10:17.321Z,7.90
2023-04-18T19:12:47.607Z,7.90
2023-04-18T19:15:18.961Z,7.90
2023-04-18T19:17:50.033Z,7.90
2023-04-18T19:20:20.576Z,7.90
2023-04-18T19:22:50.896Z,7.90
2023-04-18T19:25:23.020Z,7.90
2023-04-18T19:27:53.194Z,7.80
2023-04-18T19:30:23.654Z,7.80
2023-04-18T19:32:54.401Z,7.70
2023-04-18T19:35:24.846Z,7.70
2023-04-18T19:37:57.191Z,7.70
2023-04-18T19:40:29.744Z,7.70
2023-04-18T19:43:00.147Z,7.60
2023-04-18T19:45:31.206Z,7.70
2023-04-18T19:48:01.533Z,7.80
2023-04-18T19:50:31.830Z,7.90
2023-04-18T19:53:02.453Z,8.00
2023-04-18T19:55:34.801Z,8.00
2023-04-18T19:58:05.833Z,8.10
2023-04-18T20:00:36.248Z,8.10
2023-04-18T20:03:07.421Z,8.20
2023-04-18T20:05:38.172Z,8.30
2023-04-18T20:08:08.964Z,8.20
2023-04-18T20:10:40.896Z,8.20
2023-04-18T20:13:11.128Z,8.20
2023-04-18T20:15:41.654Z,8.30
2023-04-18T20:18:11.900Z,8.20
2023-04-18T20:20:42.139Z,8.20
2023-04-18T20:23:15.049Z,8.20
2023-04-18T20:25:46.955Z,8.20
2023-04-18T20:28:17.126Z,8.30
2023-04-18T20:30:48.620Z,8.30
2023-04-18T20:33:18.963Z,8.40
2023-04-18T20:35:49.158Z,8.50
2023-04-18T20:38:22.328Z,8.50
2023-04-18T20:40:54.974Z,8.70
2023-04-18T20:43:25.230Z,8.80
2023-04-18T20:45:58.452Z,8.90
2023-04-18T20:48:29.021Z,8.80
2023-04-18T20:50:59.479Z,8.80
2023-04-18T20:53:30.418Z,8.90
2023-04-18T20:56:04.262Z,9.00
2023-04-18T20:58:34.445Z,8.80
2023-04-18T21:01:04.987Z,8.60
2023-04-18T21:03:35.565Z,8.40
2023-04-18T21:06:06.000Z,8.30
2023-04-18T21:08:38.677Z,8.20
2023-04-18T21:11:11.578Z,8.30
2023-04-18T21:13:42.242Z,8.50
2023-04-18T21:16:12.904Z,8.90
2023-04-18T21:18:43.178Z,9.50
2023-04-18T21:21:14.332Z,9.30
2023-04-18T21:23:45.730Z,9.40
2023-04-18T21:26:17.938Z,9.30
2023-04-18T21:28:58.842Z,9.50
2023-04-18T21:31:31.712Z,10.00
2023-04-18T21:34:03.674Z,9.60
2023-04-18T21:36:34.776Z,9.10
2023-04-18T21:39:05.709Z,8.70
2023-04-18T21:41:37.558Z,8.40
2023-04-18T21:44:08.166Z,8.20
2023-04-18T21:46:38.614Z,8.10
2023-04-18T21:49:09.307Z,8.20
2023-04-18T21:51:58.038Z,8.20
2023-04-18T21:54:28.584Z,8.10
2023-04-18T21:57:00.440Z,8.20
2023-04-18T21:59:31.293Z,8.30
2023-04-18T22:02:01.705Z,8.40
2023-04-18T22:04:31.973Z,8.50
2023-04-18T22:07:03.156Z,8.50
2023-04-18T22:09:34.540Z,8.50
2023-04-18T22:12:06.846Z,8.40
2023-04-18T22:14:37.112Z,8.50
2023-04-18T22:17:07.928Z,8.30
2023-04-18T22:19:38.078Z,8.20
2023-04-18T22:22:08.386Z,8.10
2023-04-18T22:24:38.670Z,7.90
2023-04-18T22:27:10.528Z,7.90
2023-04-18T22:29:41.348Z,7.80
2023-04-18T22:32:11.950Z,7.70
2023-04-18T22:34:42.178Z,7.60
2023-04-18T22:37:12.416Z,7.60
2023-04-18T22:39:42.636Z,7.50
2023-04-18T22:42:14.876Z,7.60
2023-04-18T22:44:45.079Z,7.60
2023-04-18T22:47:17.131Z,7.50
2023-04-18T22:49:48.003Z,7.50
2023-04-18T22:52:19.034Z,7.40
2023-04-18T22:54:49.477Z,7.40
2023-04-18T22:57:21.830Z,7.40
2023-04-18T22:59:53.270Z,7.30
2023-04-18T23:02:29.032Z,7.20
2023-04-18T23:05:02.945Z,7.20
2023-04-18T23:07:33.461Z,7.20
2023-04-18T23:10:04.241Z,7.10
2023-04-18T23:12:36.522Z,7.10
2023-04-18T23:15:07.497Z,7.10
2023-04-18T23:17:38.347Z,7.00
2023-04-18T23:20:10.924Z,7.00
2023-04-18T23:22:42.189Z,7.00
2023-04-18T23:25:12.775Z,7.00
2023-04-18T23:27:44.823Z,7.00
2023-04-18T23:30:16.455Z,6.90
2023-04-18T23:32:46.895Z,6.80
2023-04-18T23:35:17.153Z,6.70
2023-04-18T23:37:47.694Z,6.70
2023-04-18T23:40:18.066Z,6.60
2023-04-18T23:42:51.238Z,6.60
2023-04-18T23:45:22.032Z,6.60
2023-04-18T23:47:52.767Z,6.60
2023-04-18T23:50:23.031Z,6.60
2023-04-18T23:52:53.585Z,6.60
2023-04-18T23:55:26.230Z,6.60
2023-04-18T23:57:58.048Z,6.60
